Time;durP1;ratioP1;P1;durP2;ratioP2;P2;SDS_P1;SDS_P2;PMS_P1;PMS_P2;Temp;Humidity;BMP_temperature;BMP_pressure;BME280_temperature;BME280_humidity;BME280_pressure;Samples;Min_cycle;Max_cycle;Signal;HPM_P1;HPM_P2
2022/07/10 00:00:51;;;;;;;6.13;2.13;;;14.70;99.90;;;;;;4998041;28;20223;-71
2022/07/10 00:03:18;;;;;;;8.17;2.20;;;14.70;99.90;;;;;;4997954;28;20204;-71
2022/07/10 00:05:45;;;;;;;3.83;2.10;;;14.70;99.90;;;;;;4998263;28;20184;-72
2022/07/10 00:08:11;;;;;;;3.20;2.17;;;14.60;99.90;;;;;;4998037;28;20224;-71
2022/07/10 00:10:38;;;;;;;3.27;1.93;;;14.60;99.90;;;;;;4998099;28;20227;-77
2022/07/10 00:13:05;;;;;;;3.30;2.00;;;14.70;99.90;;;;;;5015396;28;20251;-71
2022/07/10 00:15:32;;;;;;;4.27;1.90;;;14.60;99.90;;;;;;4998284;28;20633;-80
2022/07/10 00:17:59;;;;;;;2.70;2.00;;;14.60;99.90;;;;;;4997703;28;20207;-71
2022/07/10 00:20:26;;;;;;;5.37;2.20;;;14.50;99.90;;;;;;5015329;28;20712;-71
2022/07/10 00:22:53;;;;;;;4.63;1.90;;;14.50;99.90;;;;;;4981388;28;20225;-72
2022/07/10 00:25:27;;;;;;;3.57;2.10;;;14.50;99.90;;;;;;5015084;28;20187;-71
2022/07/10 00:27:54;;;;;;;3.57;2.13;;;14.50;99.90;;;;;;4997980;28;20700;-80
2022/07/10 00:30:21;;;;;;;4.20;1.97;;;14.50;99.90;;;;;;4997672;28;20592;-81
2022/07/10 00:32:48;;;;;;;3.03;2.00;;;14.50;99.90;;;;;;4997656;28;20243;-81
2022/07/10 00:35:15;;;;;;;3.20;2.00;;;14.50;99.90;;;;;;4997764;28;20283;-80
2022/07/10 00:37:42;;;;;;;3.77;1.90;;;14.30;99.90;;;;;;4997992;28;20208;-80
2022/07/10 00:40:09;;;;;;;2.40;2.00;;;14.30;99.90;;;;;;4997705;28;20231;-81
2022/07/10 00:42:36;;;;;;;3.33;2.30;;;14.40;99.90;;;;;;5014694;28;20216;-80
2022/07/10 00:45:03;;;;;;;4.17;2.10;;;14.40;99.90;;;;;;4997273;28;20279;-81
2022/07/10 00:47:30;;;;;;;3.90;2.17;;;14.30;99.90;;;;;;4997096;28;20228;-79
2022/07/10 00:49:57;;;;;;;3.63;2.23;;;14.30;99.90;;;;;;4997555;28;20239;-81
2022/07/10 00:52:24;;;;;;;2.87;2.03;;;14.20;99.90;;;;;;4997544;28;20224;-79
2022/07/10 00:54:51;;;;;;;7.77;2.23;;;14.20;99.90;;;;;;4997461;28;20215;-82
2022/07/10 00:57:20;;;;;;;4.00;2.03;;;14.20;99.90;;;;;;4997269;28;20287;-81
2022/07/10 00:59:49;;;;;;;5.17;2.37;;;14.10;99.90;;;;;;4997123;28;20206;-81
2022/07/10 01:02:17;;;;;;;6.83;2.40;;;14.20;99.90;;;;;;5014492;28;20637;-80
2022/07/10 01:04:44;;;;;;;4.90;2.20;;;14.20;99.90;;;;;;4997187;28;20283;-80
2022/07/10 01:07:11;;;;;;;6.73;2.50;;;14.20;99.90;;;;;;5015834;28;20288;-81
2022/07/10 01:09:38;;;;;;;6.23;2.60;;;14.10;99.90;;;;;;4997493;28;20198;-81
2022/07/10 01:12:06;;;;;;;14.67;3.00;;;14.10;99.90;;;;;;4996952;28;20226;-80
2022/07/10 01:14:35;;;;;;;5.10;2.37;;;14.10;99.90;;;;;;4997301;28;20201;-81
2022/07/10 01:17:07;;;;;;;3.57;2.37;;;14.00;99.90;;;;;;4996918;28;20294;-81
2022/07/10 01:19:34;;;;;;;5.00;2.60;;;14.10;99.90;;;;;;4996871;28;20290;-82
2022/07/10 01:22:01;;;;;;;4.63;2.40;;;13.90;99.90;;;;;;4996728;28;20234;-81
2022/07/10 01:24:28;;;;;;;5.87;2.90;;;13.90;99.90;;;;;;4997044;28;20283;-83
2022/07/10 01:26:55;;;;;;;4.50;2.40;;;13.90;99.90;;;;;;4996722;28;20220;-81
2022/07/10 01:29:22;;;;;;;3.37;2.60;;;14.00;99.90;;;;;;4996858;28;20598;-81
2022/07/10 01:31:49;;;;;;;2.80;2.20;;;14.10;99.90;;;;;;4980464;28;20214;-81
2022/07/10 01:34:22;;;;;;;4.23;2.40;;;14.00;99.90;;;;;;4996956;28;20637;-81
2022/07/10 01:36:49;;;;;;;4.83;2.60;;;14.00;99.90;;;;;;4996588;28;20224;-81
2022/07/10 01:39:16;;;;;;;3.10;2.33;;;14.00;99.90;;;;;;4993491;28;20247;-81
2022/07/10 01:41:43;;;;;;;6.70;2.80;;;14.10;99.90;;;;;;4995789;28;20223;-82
2022/07/10 01:44:10;;;;;;;3.60;2.73;;;14.10;99.90;;;;;;4996411;28;20246;-80
2022/07/10 01:46:46;;;;;;;5.07;2.87;;;14.10;99.90;;;;;;4996555;28;20318;-78
2022/07/10 01:49:13;;;;;;;4.33;2.80;;;14.00;99.90;;;;;;4996462;28;20645;-74
2022/07/10 01:51:41;;;;;;;5.97;2.87;;;14.00;99.90;;;;;;4996611;28;20220;-73
2022/07/10 01:54:07;;;;;;;9.50;3.40;;;14.00;99.90;;;;;;4996626;28;20274;-76
2022/07/10 01:56:35;;;;;;;4.03;2.63;;;14.10;99.90;;;;;;4996344;28;20654;-76
2022/07/10 01:59:03;;;;;;;5.53;2.90;;;14.00;99.90;;;;;;4996389;28;20210;-77
2022/07/10 02:01:31;;;;;;;3.70;2.67;;;14.00;99.90;;;;;;4996451;28;20195;-77
2022/07/10 02:06:43;;;;;;;3.63;2.53;;;13.90;99.90;;;;;;4996252;28;20196;-70
2022/07/10 02:09:11;;;;;;;6.53;3.20;;;13.90;99.90;;;;;;4996250;28;20218;-70
2022/07/10 02:11:38;;;;;;;5.53;2.73;;;13.90;99.90;;;;;;5013402;28;20274;-69
2022/07/10 02:14:05;;;;;;;5.70;2.80;;;13.70;99.90;;;;;;4996278;28;20210;-70
2022/07/10 02:16:32;;;;;;;4.50;2.90;;;13.80;99.90;;;;;;4995909;28;20193;-71
2022/07/10 02:18:59;;;;;;;4.40;2.83;;;13.80;99.90;;;;;;4996281;28;20206;-71
2022/07/10 02:21:26;;;;;;;4.20;2.90;;;13.80;99.90;;;;;;4995793;28;20219;-70
2022/07/10 02:23:52;;;;;;;5.17;2.90;;;13.90;99.90;;;;;;4995779;28;20199;-70
2022/07/10 02:26:19;;;;;;;5.40;3.10;;;13.90;99.90;;;;;;4995821;28;20298;-71
2022/07/10 02:28:46;;;;;;;4.90;3.10;;;13.90;99.90;;;;;;4995800;28;20228;-71
2022/07/10 02:31:13;;;;;;;5.43;2.80;;;14.00;99.90;;;;;;4996018;28;20721;-71
2022/07/10 02:33:40;;;;;;;7.57;3.27;;;13.90;99.90;;;;;;4995927;28;20200;-71
2022/07/10 02:36:07;;;;;;;4.97;2.93;;;14.00;99.90;;;;;;5013677;28;20279;-71
2022/07/10 02:38:34;;;;;;;10.63;3.53;;;13.90;99.90;;;;;;4995868;28;20202;-71
2022/07/10 02:41:01;;;;;;;5.70;3.17;;;13.90;99.90;;;;;;4995597;28;20700;-71
2022/07/10 02:43:28;;;;;;;5.77;3.00;;;13.70;99.90;;;;;;5013578;28;20310;-73
2022/07/10 02:45:55;;;;;;;5.00;2.70;;;13.70;99.90;;;;;;5013246;28;20213;-71
2022/07/10 02:48:22;;;;;;;4.43;3.03;;;13.70;99.90;;;;;;4995332;28;20265;-72
2022/07/10 02:50:49;;;;;;;4.53;2.80;;;13.70;99.90;;;;;;4995645;28;20198;-71
2022/07/10 02:53:16;;;;;;;4.83;2.77;;;13.80;99.90;;;;;;4996474;28;20259;-71
2022/07/10 02:55:43;;;;;;;4.97;2.97;;;13.80;99.90;;;;;;4999591;28;20667;-71
2022/07/10 02:58:11;;;;;;;4.57;2.90;;;13.80;99.90;;;;;;5016975;28;20614;-71
2022/07/10 03:00:40;;;;;;;3.80;2.73;;;13.80;99.90;;;;;;4999384;28;20206;-71
2022/07/10 03:03:07;;;;;;;5.07;3.13;;;13.80;99.90;;;;;;4999126;28;20250;-71
2022/07/10 03:05:34;;;;;;;6.33;3.13;;;13.70;99.90;;;;;;4999746;28;20711;-71
2022/07/10 03:08:01;;;;;;;6.63;3.23;;;13.70;99.90;;;;;;4999383;28;20287;-72
2022/07/10 03:10:28;;;;;;;4.57;3.57;;;13.80;99.90;;;;;;4999101;28;20204;-71
2022/07/10 03:12:55;;;;;;;4.13;2.93;;;13.80;99.90;;;;;;4998902;28;20290;-71
2022/07/10 03:15:22;;;;;;;4.27;3.07;;;13.80;99.90;;;;;;4999100;28;20291;-70
2022/07/10 03:17:49;;;;;;;5.27;2.97;;;13.80;99.90;;;;;;4999136;28;20192;-70
2022/07/10 03:20:16;;;;;;;5.47;2.97;;;13.90;99.90;;;;;;5016477;28;20540;-71
2022/07/10 03:22:43;;;;;;;6.27;2.93;;;14.00;99.90;;;;;;4998604;28;20232;-71
2022/07/10 03:25:10;;;;;;;5.00;2.93;;;13.90;99.90;;;;;;4999030;28;20196;-70
2022/07/10 03:27:37;;;;;;;10.53;3.33;;;13.90;99.90;;;;;;4998807;28;20200;-71
2022/07/10 03:30:04;;;;;;;5.73;3.20;;;13.90;99.90;;;;;;4998908;28;20283;-70
2022/07/10 03:32:31;;;;;;;5.33;3.20;;;13.90;99.90;;;;;;4998457;28;20664;-70
2022/07/10 03:34:58;;;;;;;6.97;2.80;;;14.00;99.90;;;;;;4998857;28;20649;-71
2022/07/10 03:37:26;;;;;;;5.57;2.60;;;14.10;99.90;;;;;;5016233;28;20196;-79
2022/07/10 03:39:53;;;;;;;5.20;2.90;;;14.10;99.90;;;;;;4998928;28;20196;-74
2022/07/10 03:42:19;;;;;;;4.60;3.10;;;14.10;99.90;;;;;;5015902;28;20703;-78
2022/07/10 03:44:46;;;;;;;5.27;2.80;;;14.10;99.90;;;;;;4998908;28;20200;-78
2022/07/10 03:47:13;;;;;;;4.17;3.10;;;14.10;99.90;;;;;;5015937;28;20634;-77
2022/07/10 03:49:41;;;;;;;4.50;3.33;;;14.20;99.90;;;;;;4999101;28;20203;-76
2022/07/10 03:52:08;;;;;;;6.53;2.87;;;14.30;99.90;;;;;;5015969;28;20267;-77
2022/07/10 03:54:35;;;;;;;9.70;3.47;;;14.30;99.90;;;;;;4998417;28;20295;-70
2022/07/10 03:59:48;;;;;;;5.87;3.33;;;14.30;99.90;;;;;;5015664;28;20219;-72
2022/07/10 04:02:15;;;;;;;5.03;3.20;;;14.30;99.90;;;;;;4998035;28;20299;-78
2022/07/10 04:04:42;;;;;;;4.90;3.03;;;14.30;99.90;;;;;;4997978;28;20291;-71
2022/07/10 04:07:10;;;;;;;6.03;3.20;;;14.30;99.90;;;;;;4998234;28;20303;-72
2022/07/10 04:09:37;;;;;;;6.17;3.20;;;14.50;99.90;;;;;;4998016;28;20252;-71
2022/07/10 04:12:04;;;;;;;6.27;3.40;;;14.40;99.90;;;;;;4997822;28;20290;-71
2022/07/10 04:14:31;;;;;;;5.90;3.90;;;14.40;99.90;;;;;;4997787;28;20203;-72
2022/07/10 04:16:58;;;;;;;7.43;3.30;;;14.50;99.90;;;;;;5015701;28;20194;-71
2022/07/10 04:19:25;;;;;;;6.20;3.40;;;14.50;99.90;;;;;;5015429;28;20219;-70
2022/07/10 04:21:52;;;;;;;7.13;4.00;;;14.60;99.90;;;;;;5015441;28;20271;-70
2022/07/10 04:24:19;;;;;;;10.70;3.70;;;14.80;99.90;;;;;;4997595;28;20224;-69
2022/07/10 04:26:46;;;;;;;8.50;4.00;;;14.90;99.90;;;;;;4997738;28;20294;-77
2022/07/10 04:29:13;;;;;;;5.60;3.77;;;15.00;99.90;;;;;;4997537;28;20294;-76
2022/07/10 04:31:40;;;;;;;5.90;3.73;;;15.20;99.90;;;;;;4997576;28;20650;-77
2022/07/10 04:34:07;;;;;;;6.43;3.43;;;15.20;99.90;;;;;;4997750;28;20211;-77
2022/07/10 04:36:34;;;;;;;4.87;3.40;;;15.30;99.90;;;;;;4997726;28;20231;-78
2022/07/10 04:39:01;;;;;;;6.93;4.10;;;15.30;99.90;;;;;;4997917;28;20683;-77
2022/07/10 04:41:28;;;;;;;7.43;3.80;;;15.30;99.90;;;;;;4997583;28;20200;-76
2022/07/10 04:43:55;;;;;;;7.33;3.40;;;15.20;99.90;;;;;;4997222;28;20212;-77
2022/07/10 04:46:22;;;;;;;5.50;3.40;;;15.20;99.90;;;;;;4997065;28;20295;-77
2022/07/10 04:48:50;;;;;;;5.40;3.40;;;15.30;99.90;;;;;;4997582;28;20243;-77
2022/07/10 04:51:17;;;;;;;7.40;3.47;;;15.30;99.90;;;;;;4997292;28;20243;-77
2022/07/10 04:53:44;;;;;;;4.57;3.13;;;15.50;99.90;;;;;;4997007;28;20215;-77
2022/07/10 04:56:11;;;;;;;4.97;3.17;;;15.50;99.90;;;;;;4997293;28;20580;-73
2022/07/10 04:58:38;;;;;;;7.27;3.20;;;15.60;99.90;;;;;;4996976;28;20649;-78
2022/07/10 05:01:05;;;;;;;5.43;3.03;;;15.70;99.90;;;;;;5014643;28;20196;-79
2022/07/10 05:03:32;;;;;;;6.67;2.53;;;15.70;99.90;;;;;;4997073;28;20307;-78
2022/07/10 05:05:59;;;;;;;3.63;2.10;;;15.60;99.90;;;;;;4996967;28;20204;-80
2022/07/10 05:08:26;;;;;;;3.67;2.30;;;15.50;99.90;;;;;;4996874;28;20299;-78
2022/07/10 05:10:53;;;;;;;5.00;2.17;;;15.50;99.90;;;;;;4996949;28;20661;-79
2022/07/10 05:13:20;;;;;;;3.40;2.13;;;15.60;99.90;;;;;;4996586;28;20567;-79
2022/07/10 05:15:47;;;;;;;13.97;2.70;;;15.70;99.90;;;;;;4996286;28;20206;-80
2022/07/10 05:18:14;;;;;;;6.60;2.17;;;15.50;99.90;;;;;;4996831;28;20564;-80
2022/07/10 05:20:43;;;;;;;2.40;1.77;;;15.70;99.90;;;;;;4996832;28;20210;-84
2022/07/10 05:23:11;;;;;;;3.90;1.70;;;15.70;99.90;;;;;;4992341;28;20212;-82
2022/07/10 05:25:38;;;;;;;4.77;1.60;;;15.80;99.90;;;;;;4996422;28;20227;-84
2022/07/10 05:28:05;;;;;;;3.53;1.60;;;16.00;99.90;;;;;;4996704;28;20615;-82
2022/07/10 05:30:33;;;;;;;4.10;2.10;;;16.30;99.90;;;;;;4996613;28;20205;-80
2022/07/10 05:33:00;;;;;;;3.93;1.90;;;16.40;99.90;;;;;;5014368;28;20258;-72
2022/07/10 05:35:27;;;;;;;3.90;1.80;;;16.60;99.90;;;;;;4996481;28;20228;-69
2022/07/10 05:37:54;;;;;;;4.03;1.73;;;16.60;99.90;;;;;;5013958;28;20210;-74
2022/07/10 05:40:21;;;;;;;3.03;1.60;;;16.50;99.90;;;;;;4996532;28;20196;-70
2022/07/10 05:42:49;;;;;;;3.10;1.57;;;16.60;99.90;;;;;;4996059;28;20219;-77
2022/07/10 05:45:16;;;;;;;3.17;1.57;;;16.70;99.90;;;;;;5014091;28;20188;-71
2022/07/10 05:47:44;;;;;;;4.93;1.70;;;16.50;99.90;;;;;;4996238;28;20323;-69
2022/07/10 05:50:11;;;;;;;4.33;1.97;;;16.40;99.90;;;;;;4996344;28;20220;-72
2022/07/10 05:52:39;;;;;;;3.10;1.40;;;16.20;99.90;;;;;;4996180;28;20216;-72
2022/07/10 05:55:07;;;;;;;3.90;1.53;;;16.20;99.90;;;;;;4995940;28;20299;-71
2022/07/10 05:57:35;;;;;;;5.33;1.63;;;16.20;99.90;;;;;;4996271;28;20196;-71
2022/07/10 06:00:06;;;;;;;5.20;1.53;;;16.20;99.90;;;;;;5013782;28;20563;-71
2022/07/10 06:02:33;;;;;;;4.67;1.80;;;16.10;99.90;;;;;;5013608;28;20567;-70
2022/07/10 06:05:00;;;;;;;4.23;1.70;;;16.20;99.90;;;;;;4996138;28;20289;-71
2022/07/10 06:07:27;;;;;;;5.77;1.70;;;16.40;99.90;;;;;;4996144;28;20294;-73
2022/07/10 06:09:55;;;;;;;4.33;1.83;;;16.60;99.90;;;;;;4995945;28;20196;-74
2022/07/10 06:12:22;;;;;;;4.83;1.40;;;16.70;99.90;;;;;;4996257;28;20218;-73
2022/07/10 06:14:49;;;;;;;4.27;1.63;;;16.80;99.90;;;;;;4997046;28;20286;-71
2022/07/10 06:17:16;;;;;;;5.23;1.80;;;16.80;99.90;;;;;;4997316;28;20228;-72
2022/07/10 06:19:43;;;;;;;9.13;2.27;;;16.70;99.90;;;;;;5013910;28;20597;-76
2022/07/10 06:24:55;;;;;;;5.50;2.13;;;16.50;99.90;;;;;;5000365;28;20203;-88
2022/07/10 06:27:22;;;;;;;5.23;2.10;;;16.30;99.90;;;;;;4997518;28;20198;-72
2022/07/10 06:29:49;;;;;;;5.83;2.17;;;16.30;99.90;;;;;;5017694;28;20196;-71
2022/07/10 06:32:16;;;;;;;4.40;2.53;;;16.40;99.90;;;;;;5000780;28;20291;-85
2022/07/10 06:34:43;;;;;;;8.17;2.87;;;16.40;99.90;;;;;;5002321;28;20207;-83
2022/07/10 06:37:10;;;;;;;6.87;3.03;;;16.30;99.90;;;;;;5001344;28;20228;-72
2022/07/10 06:39:37;;;;;;;6.00;3.13;;;16.20;99.90;;;;;;4999759;28;20286;-71
2022/07/10 06:42:05;;;;;;;8.10;3.80;;;16.20;99.90;;;;;;5018814;28;20192;-88
2022/07/10 06:44:32;;;;;;;5.20;3.60;;;16.00;99.90;;;;;;5017124;28;20223;-88
2022/07/10 06:49:49;;;;;;;6.60;4.00;;;16.20;99.90;;;;;;5015577;28;20234;-89
2022/07/10 06:52:16;;;;;;;6.33;4.03;;;16.30;99.90;;;;;;5021134;28;20217;-90
2022/07/10 06:54:43;;;;;;;7.73;4.30;;;16.20;99.90;;;;;;5000706;28;20649;-90
2022/07/10 06:57:11;;;;;;;6.70;3.40;;;16.30;99.90;;;;;;5000178;28;20192;-87
2022/07/10 06:59:38;;;;;;;6.03;3.40;;;16.30;99.90;;;;;;5017973;28;20198;-88
2022/07/10 07:02:05;;;;;;;6.33;3.43;;;16.20;99.90;;;;;;5000107;28;20200;-87
2022/07/10 07:04:32;;;;;;;5.53;2.70;;;16.10;99.90;;;;;;5000543;28;20314;-86
2022/07/10 07:06:59;;;;;;;5.90;2.53;;;16.20;99.90;;;;;;5001806;28;20299;-88
2022/07/10 07:09:26;;;;;;;4.70;2.47;;;16.30;99.90;;;;;;5008092;28;20202;-87
2022/07/10 07:11:53;;;;;;;4.00;2.10;;;16.30;99.90;;;;;;5006265;28;20192;-88
2022/07/10 07:14:20;;;;;;;4.90;2.40;;;16.30;99.90;;;;;;5000114;28;20286;-83
2022/07/10 07:16:57;;;;;;;4.57;2.00;;;16.50;99.90;;;;;;5004797;28;20279;-87
2022/07/10 07:19:31;;;;;;;5.60;2.37;;;16.60;99.90;;;;;;4986757;28;20604;-88
2022/07/10 07:24:44;;;;;;;4.23;1.53;;;17.10;99.90;;;;;;4999707;28;20227;-89
2022/07/10 07:27:11;;;;;;;3.63;1.63;;;17.10;99.90;;;;;;4999337;28;20207;-85
2022/07/10 07:29:38;;;;;;;5.50;1.83;;;17.00;99.90;;;;;;5019399;28;20231;-83
2022/07/10 07:32:05;;;;;;;4.37;2.27;;;16.90;99.90;;;;;;4999943;28;20204;-86
2022/07/10 07:34:32;;;;;;;5.23;1.80;;;17.10;99.90;;;;;;5000352;28;20200;-80
2022/07/10 07:36:59;;;;;;;3.17;1.50;;;17.40;99.90;;;;;;5005716;28;20208;-82
2022/07/10 07:39:26;;;;;;;4.50;1.40;;;17.70;99.90;;;;;;4998225;28;20196;-84
2022/07/10 07:41:53;;;;;;;3.23;1.53;;;17.70;99.90;;;;;;4998847;28;20295;-85
2022/07/10 07:44:20;;;;;;;5.50;1.60;;;17.70;99.90;;;;;;4999408;28;20220;-88
2022/07/10 07:46:55;;;;;;;2.73;1.30;;;17.80;99.90;;;;;;4999902;28;20238;-74
2022/07/10 07:49:22;;;;;;;3.67;1.57;;;18.00;99.90;;;;;;4998526;28;20386;-81
2022/07/10 07:51:49;;;;;;;5.03;1.60;;;18.30;99.90;;;;;;4998133;28;20925;-85
2022/07/10 07:54:15;;;;;;;3.70;1.23;;;18.30;99.90;;;;;;5018271;28;20215;-74
2022/07/10 07:56:42;;;;;;;3.00;1.20;;;18.40;99.90;;;;;;5018203;28;20549;-75
2022/07/10 07:59:10;;;;;;;4.20;1.27;;;18.50;99.90;;;;;;4998879;28;20376;-73
2022/07/10 08:01:37;;;;;;;4.00;1.37;;;18.70;99.90;;;;;;5016418;28;20618;-74
2022/07/10 08:04:04;;;;;;;7.40;1.80;;;18.80;99.90;;;;;;4998370;28;20251;-85
2022/07/10 08:06:36;;;;;;;5.37;1.77;;;18.80;99.90;;;;;;4999170;28;20204;-83
2022/07/10 08:09:03;;;;;;;4.17;1.40;;;19.00;99.90;;;;;;5000609;28;20334;-75
2022/07/10 08:11:29;;;;;;;2.73;1.20;;;18.60;99.90;;;;;;5009067;28;20203;-73
2022/07/10 08:13:56;;;;;;;7.00;1.80;;;18.70;99.90;;;;;;4998478;28;20215;-86
2022/07/10 08:16:23;;;;;;;6.63;1.60;;;19.00;99.90;;;;;;4998106;28;20403;-84
2022/07/10 08:18:50;;;;;;;5.60;1.23;;;19.10;99.90;;;;;;4997995;28;20250;-77
2022/07/10 08:21:18;;;;;;;3.30;1.20;;;18.90;99.90;;;;;;4997908;28;20284;-72
2022/07/10 08:23:44;;;;;;;13.50;4.33;;;18.80;99.90;;;;;;4997665;28;20769;-83
2022/07/10 08:26:12;;;;;;;6.07;1.30;;;18.90;99.90;;;;;;4981860;28;20300;-79
2022/07/10 08:28:39;;;;;;;5.43;1.50;;;18.90;99.90;;;;;;4997600;28;20200;-81
2022/07/10 08:31:06;;;;;;;5.10;1.30;;;19.10;99.90;;;;;;4992540;28;20295;-84
2022/07/10 08:33:41;;;;;;;3.83;1.40;;;18.90;99.90;;;;;;4997659;28;20202;-80
2022/07/10 08:36:07;;;;;;;5.57;1.43;;;19.30;99.90;;;;;;5015070;28;20224;-82
2022/07/10 08:38:55;;;;;;;2.90;1.30;;;19.80;99.90;;;;;;4997711;28;20193;-80
2022/07/10 08:41:25;;;;;;;4.57;1.47;;;21.10;99.90;;;;;;4984598;28;20196;-85
2022/07/10 08:43:53;;;;;;;4.27;1.27;;;21.60;99.90;;;;;;5016281;28;20259;-87
2022/07/10 08:46:20;;;;;;;3.67;1.10;;;21.50;99.90;;;;;;5002420;28;20299;-87
2022/07/10 08:48:52;;;;;;;2.38;1.20;;;22.00;99.90;;;;;;5000388;28;20195;-81
2022/07/10 08:51:35;;;;;;;3.13;1.30;;;22.40;99.90;;;;;;4996911;28;20650;-85
2022/07/10 08:54:04;;;;;;;3.45;1.30;;;22.40;99.90;;;;;;4998511;28;20210;-87
2022/07/10 08:56:31;;;;;;;4.57;1.25;;;21.90;99.90;;;;;;4998332;28;20200;-88
2022/07/10 08:59:00;;;;;;;9.57;1.58;;;21.20;99.90;;;;;;4997365;28;20545;-73
2022/07/10 09:01:27;;;;;;;2.80;1.10;;;20.80;99.90;;;;;;4996790;28;20236;-72
2022/07/10 09:03:54;;;;;;;3.83;1.20;;;20.40;99.90;;;;;;4996915;28;20219;-70
2022/07/10 09:06:20;;;;;;;8.17;1.40;;;20.40;99.90;;;;;;4997109;28;20207;-73
2022/07/10 09:09:05;;;;;;;3.03;1.10;;;20.30;99.90;;;;;;5014496;28;20282;-72
2022/07/10 09:11:33;;;;;;;2.93;1.10;;;20.00;99.90;;;;;;4997255;28;20210;-75
2022/07/10 09:14:07;;;;;;;3.63;1.20;;;19.80;99.90;;;;;;4997092;28;20646;-77
2022/07/10 09:16:36;;;;;;;3.37;1.10;;;20.30;99.90;;;;;;4996581;28;20265;-74
2022/07/10 09:19:23;;;;;;;1.93;1.40;;;20.70;99.90;;;;;;4996628;28;20207;-87
2022/07/10 09:22:10;;;;;;;4.30;1.63;;;21.20;99.90;;;;;;4997181;28;20299;-87
2022/07/10 09:24:39;;;;;;;4.20;1.30;;;21.70;99.90;;;;;;4997618;28;20657;-85
2022/07/10 09:27:07;;;;;;;2.90;1.57;;;22.40;99.90;;;;;;4996851;28;20287;-73
2022/07/10 09:29:48;;;;;;;4.60;1.67;;;22.30;99.90;;;;;;4996774;28;20287;-72
2022/07/10 09:32:17;;;;;;;4.32;1.90;;;22.90;99.90;;;;;;5014217;28;20192;-81
2022/07/10 09:34:49;;;;;;;2.83;1.88;;;23.20;99.90;;;;;;4997330;28;20231;-80
2022/07/10 09:37:29;;;;;;;3.55;1.63;;;22.90;99.90;;;;;;4996415;28;20235;-73
2022/07/10 09:40:01;;;;;;;5.60;1.73;;;22.90;99.90;;;;;;4996551;28;20188;-73
2022/07/10 09:42:39;;;;;;;3.17;1.60;;;22.50;99.90;;;;;;4996551;28;20211;-74
2022/07/10 09:45:20;;;;;;;5.13;1.90;;;21.90;99.90;;;;;;5014677;28;20248;-87
2022/07/10 09:48:00;;;;;;;3.83;1.27;;;21.50;99.90;;;;;;4997479;28;20247;-88
2022/07/10 09:50:29;;;;;;;3.03;1.30;;;21.00;99.90;;;;;;5001045;28;20267;-82
2022/07/10 09:52:58;;;;;;;5.37;1.40;;;20.10;99.90;;;;;;5001313;28;20322;-89
2022/07/10 09:55:29;;;;;;;2.43;1.17;;;20.00;99.90;;;;;;4997355;28;20272;-74
2022/07/10 09:57:58;;;;;;;2.33;1.23;;;20.50;99.90;;;;;;4996521;28;20251;-88
2022/07/10 10:00:30;;;;;;;4.03;1.20;;;21.20;99.90;;;;;;4997128;28;20239;-84
2022/07/10 10:03:02;;;;;;;2.87;1.00;;;21.00;99.90;;;;;;4995975;28;20193;-86
2022/07/10 10:05:39;;;;;;;2.53;1.00;;;20.80;99.90;;;;;;4996457;28;20216;-82
2022/07/10 10:08:33;;;;;;;6.17;1.20;;;20.60;99.90;;;;;;5013994;28;20192;-86
2022/07/10 10:11:01;;;;;;;5.57;1.17;;;20.20;99.90;;;;;;4990723;28;20196;-73
2022/07/10 10:13:30;;;;;;;4.53;1.10;;;19.80;99.90;;;;;;4996081;28;20287;-72
2022/07/10 10:15:57;;;;;;;1.80;0.80;;;19.90;99.90;;;;;;4995763;28;20238;-73
2022/07/10 10:18:25;;;;;;;2.67;0.90;;;19.60;99.90;;;;;;4995901;28;20291;-72
2022/07/10 10:20:54;;;;;;;6.47;1.40;;;19.50;99.90;;;;;;4995922;28;20295;-73
2022/07/10 10:23:24;;;;;;;3.30;1.10;;;19.70;99.90;;;;;;4995708;28;20224;-73
2022/07/10 10:25:56;;;;;;;1.60;0.80;;;19.80;99.90;;;;;;4995801;28;20219;-75
2022/07/10 10:28:25;;;;;;;1.90;0.80;;;19.30;99.90;;;;;;4995597;28;20239;-71
2022/07/10 10:30:58;;;;;;;2.27;0.80;;;19.00;99.90;;;;;;4995650;28;20291;-72
2022/07/10 10:33:42;;;;;;;2.13;0.80;;;18.70;99.90;;;;;;4995761;28;20196;-70
2022/07/10 10:36:14;;;;;;;4.93;0.80;;;18.30;99.90;;;;;;4995875;28;20258;-71
2022/07/10 10:38:51;;;;;;;4.30;1.00;;;18.20;99.90;;;;;;4995586;28;20283;-73
2022/07/10 10:41:26;;;;;;;2.50;0.80;;;17.90;99.90;;;;;;4995848;28;20203;-72
2022/07/10 10:44:16;;;;;;;2.67;0.90;;;17.90;99.90;;;;;;4995553;28;20243;-73
2022/07/10 10:46:56;;;;;;;2.10;0.70;;;17.80;99.90;;;;;;4995573;28;20265;-71
2022/07/10 10:49:25;;;;;;;1.90;0.70;;;17.80;99.90;;;;;;4995497;28;20681;-72
2022/07/10 10:52:03;;;;;;;1.93;0.90;;;17.90;99.90;;;;;;4995517;28;20263;-72
2022/07/10 10:54:51;;;;;;;2.17;0.60;;;18.00;99.90;;;;;;4989191;28;20251;-72
2022/07/10 10:57:18;;;;;;;2.30;0.70;;;18.00;99.90;;;;;;4976151;28;20324;-71
2022/07/10 10:59:46;;;;;;;2.40;0.90;;;18.20;99.90;;;;;;5004810;28;20270;-81
2022/07/10 11:02:29;;;;;;;1.87;0.80;;;18.40;99.90;;;;;;4995387;28;20356;-75
2022/07/10 11:05:17;;;;;;;1.83;0.80;;;18.60;99.90;;;;;;5012666;28;20745;-84
2022/07/10 11:07:55;;;;;;;4.03;1.20;;;18.60;99.90;;;;;;4995614;28;20208;-80
2022/07/10 11:10:29;;;;;;;2.60;1.40;;;18.80;99.90;;;;;;4995301;28;20238;-72
2022/07/10 11:13:08;;;;;;;3.87;1.00;;;19.00;99.90;;;;;;5012894;28;20207;-72
2022/07/10 11:15:47;;;;;;;1.33;0.93;;;18.80;99.90;;;;;;4998033;28;20291;-72
2022/07/10 11:18:21;;;;;;;1.77;1.07;;;19.10;99.90;;;;;;4998815;28;20231;-71
2022/07/10 11:20:50;;;;;;;2.00;0.97;;;19.20;99.90;;;;;;5016046;28;20287;-71
2022/07/10 11:23:36;;;;;;;5.23;1.20;;;19.70;99.90;;;;;;5016074;28;20188;-70
2022/07/10 11:26:08;;;;;;;7.37;1.43;;;20.60;99.90;;;;;;5016298;28;20623;-70
2022/07/10 11:28:47;;;;;;;6.03;1.20;;;21.50;99.90;;;;;;4990608;28;20196;-70
2022/07/10 11:31:14;;;;;;;3.73;1.20;;;22.10;99.90;;;;;;4979205;28;20212;-71
2022/07/10 11:33:44;;;;;;;1.93;1.10;;;22.50;99.90;;;;;;4978846;28;20196;-69
2022/07/10 11:36:16;;;;;;;2.50;1.13;;;21.90;99.90;;;;;;4978878;28;20208;-70
2022/07/10 11:38:44;;;;;;;3.53;1.03;;;21.10;99.90;;;;;;4996606;28;20576;-71
2022/07/10 11:41:23;;;;;;;3.67;1.20;;;21.00;99.90;;;;;;4978973;28;20197;-71
2022/07/10 11:43:55;;;;;;;4.50;1.30;;;21.00;99.90;;;;;;4979017;28;20201;-82
2022/07/10 11:46:25;;;;;;;3.07;1.20;;;22.20;99.90;;;;;;4978820;28;20201;-81
2022/07/10 11:48:53;;;;;;;2.80;1.07;;;22.70;99.90;;;;;;4996410;28;20199;-83
2022/07/10 11:51:30;;;;;;;1.95;1.13;;;23.00;99.90;;;;;;4978820;28;20236;-84
2022/07/10 11:54:02;;;;;;;4.07;1.37;;;23.00;99.90;;;;;;4978833;28;20256;-83
2022/07/10 11:56:43;;;;;;;3.83;1.30;;;22.60;99.90;;;;;;4978673;28;20296;-81
2022/07/10 11:59:11;;;;;;;2.23;1.10;;;22.60;99.90;;;;;;4978548;28;20201;-81
2022/07/10 12:01:49;;;;;;;2.50;1.10;;;22.30;99.90;;;;;;4983787;28;20684;-81
2022/07/10 12:04:18;;;;;;;3.00;1.20;;;22.10;99.90;;;;;;5015187;28;20203;-80
2022/07/10 12:06:49;;;;;;;2.43;1.00;;;22.80;99.90;;;;;;5015704;28;20592;-83
2022/07/10 12:09:23;;;;;;;3.23;1.07;;;22.60;99.90;;;;;;5015135;28;20220;-84
2022/07/10 12:12:03;;;;;;;2.67;1.10;;;22.70;99.90;;;;;;4997683;28;20200;-81
2022/07/10 12:14:30;;;;;;;4.25;0.90;;;22.60;99.90;;;;;;4997993;28;20724;-83
2022/07/10 12:16:57;;;;;;;2.53;1.00;;;23.70;99.90;;;;;;5015951;28;20287;-81
2022/07/10 12:19:27;;;;;;;1.45;0.70;;;24.50;99.80;;;;;;4997927;28;20200;-80
2022/07/10 12:21:54;;;;;;;2.47;0.90;;;25.00;95.60;;;;;;4997673;28;20696;-80
2022/07/10 12:24:27;;;;;;;3.92;0.70;;;25.00;94.50;;;;;;4997545;28;20216;-72
2022/07/10 12:26:57;;;;;;;1.50;0.60;;;25.40;93.20;;;;;;4997871;28;20554;-77
2022/07/10 12:29:27;;;;;;;1.25;0.60;;;24.70;90.50;;;;;;4997624;28;20242;-83
2022/07/10 12:31:56;;;;;;;1.77;0.75;;;25.00;91.50;;;;;;5015169;28;20271;-76
2022/07/10 12:34:37;;;;;;;2.08;0.70;;;25.60;91.00;;;;;;4997215;28;20287;-72
2022/07/10 12:37:11;;;;;;;2.70;0.80;;;25.50;88.30;;;;;;4997586;28;20200;-73
2022/07/10 12:39:47;;;;;;;2.17;0.80;;;25.90;86.10;;;;;;5014696;28;20198;-72
2022/07/10 12:42:28;;;;;;;2.53;0.50;;;26.20;80.30;;;;;;4997216;28;20199;-70
2022/07/10 12:45:15;;;;;;;3.53;0.85;;;26.40;81.00;;;;;;4996815;28;20251;-73
2022/07/10 12:47:47;;;;;;;2.28;0.88;;;26.80;81.50;;;;;;4997010;28;20259;-71
2022/07/10 12:50:16;;;;;;;1.85;0.90;;;27.20;80.60;;;;;;4997092;28;20196;-70
2022/07/10 12:52:43;;;;;;;3.55;0.90;;;27.50;79.40;;;;;;4980803;28;20660;-73
2022/07/10 12:55:15;;;;;;;2.75;0.82;;;26.80;76.90;;;;;;4997060;28;20188;-78
2022/07/10 12:58:21;;;;;;;2.17;0.80;;;27.20;79.10;;;;;;4996825;28;20604;-75
2022/07/10 13:00:49;;;;;;;2.83;0.90;;;27.10;80.20;;;;;;4935579;29;20230;-73
2022/07/10 13:03:24;;;;;;;1.25;0.68;;;26.50;79.70;;;;;;4934730;29;20292;-72
2022/07/10 13:05:51;;;;;;;2.58;1.05;;;25.70;78.10;;;;;;4934536;29;20234;-73
2022/07/10 13:08:21;;;;;;;4.00;1.23;;;25.80;84.20;;;;;;4934696;29;20689;-69
2022/07/10 13:10:56;;;;;;;2.67;1.00;;;26.70;85.80;;;;;;4918678;29;20289;-69